createdAt,value
2022-10-14T00:02:31.143Z,16.04
2022-10-14T00:07:33.044Z,16.05
2022-10-14T00:12:34.597Z,16.04
2022-10-14T00:17:36.433Z,16.03
2022-10-14T00:22:37.828Z,16.03
2022-10-14T00:27:39.269Z,16.03
2022-10-14T00:32:40.635Z,15.99
2022-10-14T00:37:42.037Z,15.86
2022-10-14T00:42:43.420Z,15.90
2022-10-14T00:47:45.112Z,15.89
2022-10-14T00:52:46.960Z,15.85
2022-10-14T00:57:48.352Z,15.80
2022-10-14T01:02:49.719Z,15.76
2022-10-14T01:07:53.823Z,15.70
2022-10-14T01:13:08.065Z,15.64
2022-10-14T01:18:15.536Z,15.66
2022-10-14T01:23:38.676Z,15.67
2022-10-14T01:28:51.985Z,15.72
2022-10-14T01:33:58.380Z,15.67
2022-10-14T01:39:05.518Z,15.62
2022-10-14T01:44:12.004Z,15.54
2022-10-14T01:49:23.129Z,15.52
2022-10-14T01:54:31.167Z,15.45
2022-10-14T01:59:35.190Z,15.52
2022-10-14T02:04:36.554Z,15.51
2022-10-14T02:10:02.909Z,15.54
2022-10-14T02:15:15.090Z,15.58
2022-10-14T02:20:26.397Z,15.59
2022-10-14T02:25:32.644Z,15.62
2022-10-14T02:30:39.650Z,15.67
2022-10-14T02:35:42.992Z,15.69
2022-10-14T02:40:47.040Z,15.65
2022-10-14T02:45:48.400Z,15.66
2022-10-14T02:50:49.788Z,15.71
2022-10-14T02:55:51.168Z,15.72
2022-10-14T03:00:53.010Z,15.76
2022-10-14T03:05:55.467Z,15.76
2022-10-14T03:10:57.010Z,15.74
2022-10-14T03:15:59.074Z,15.66
2022-10-14T03:21:00.499Z,15.61
2022-10-14T03:26:01.875Z,15.65
2022-10-14T03:31:03.234Z,15.58
2022-10-14T03:36:04.739Z,15.65
2022-10-14T03:41:06.199Z,15.64
2022-10-14T03:46:07.548Z,15.65
2022-10-14T03:51:09.363Z,15.73
2022-10-14T03:56:10.873Z,15.64
2022-10-14T04:01:12.287Z,15.70
2022-10-14T04:06:14.520Z,15.69
2022-10-14T04:11:17.154Z,15.57
2022-10-14T04:16:18.550Z,15.53
2022-10-14T04:21:20.235Z,15.53
2022-10-14T04:26:21.582Z,15.61
2022-10-14T04:31:22.957Z,15.60
2022-10-14T04:36:24.318Z,15.65
2022-10-14T04:41:25.657Z,15.70
2022-10-14T04:46:27.063Z,15.73
2022-10-14T04:51:28.443Z,15.72
2022-10-14T04:56:29.855Z,15.74
2022-10-14T05:01:33.927Z,15.70
2022-10-14T05:06:37.304Z,15.73
2022-10-14T05:11:38.675Z,15.73
2022-10-14T05:16:40.074Z,15.61
2022-10-14T05:21:41.832Z,15.56
2022-10-14T05:26:43.233Z,15.54
2022-10-14T05:31:44.625Z,15.50
2022-10-14T05:36:46.054Z,15.49
2022-10-14T05:41:47.420Z,15.53
2022-10-14T05:46:48.791Z,15.60
2022-10-14T05:51:50.159Z,15.61
2022-10-14T05:56:51.690Z,15.56
2022-10-14T06:01:53.068Z,15.53
2022-10-14T06:06:54.577Z,15.51
2022-10-14T06:11:55.958Z,15.54
2022-10-14T06:16:57.328Z,15.59
2022-10-14T06:21:58.874Z,15.60
2022-10-14T06:27:00.230Z,15.65
2022-10-14T06:32:01.595Z,15.72
2022-10-14T06:37:02.964Z,15.73
2022-10-14T06:42:04.420Z,15.80
2022-10-14T06:47:07.169Z,15.85
2022-10-14T06:52:08.533Z,15.79
2022-10-14T06:57:09.930Z,15.85
2022-10-14T07:02:11.697Z,15.87
2022-10-14T07:07:13.046Z,15.89
2022-10-14T07:12:14.464Z,15.88
2022-10-14T07:17:15.835Z,15.97
2022-10-14T07:22:17.576Z,16.02
2022-10-14T07:27:20.699Z,16.06
2022-10-14T07:32:22.444Z,16.10
2022-10-14T07:37:24.251Z,16.12
2022-10-14T07:42:25.915Z,16.21
2022-10-14T07:47:27.667Z,16.26
2022-10-14T07:52:29.180Z,16.29
2022-10-14T07:57:30.711Z,16.30
2022-10-14T08:02:32.178Z,16.38
2022-10-14T08:07:33.571Z,16.35
2022-10-14T08:12:34.944Z,16.33
2022-10-14T08:17:36.340Z,16.29
2022-10-14T08:22:37.756Z,16.29
2022-10-14T08:27:39.089Z,16.34
2022-10-14T08:32:40.452Z,16.21
2022-10-14T08:37:42.378Z,16.26
2022-10-14T08:42:55.515Z,16.41
2022-10-14T08:48:00.457Z,16.63
2022-10-14T08:53:19.402Z,16.76
2022-10-14T08:58:28.651Z,16.78
2022-10-14T09:03:34.678Z,16.82
2022-10-14T09:08:42.195Z,16.83
2022-10-14T09:13:46.922Z,16.78
2022-10-14T09:18:58.061Z,16.80
2022-10-14T09:24:18.062Z,16.74
2022-10-14T09:29:25.878Z,16.84
2022-10-14T09:34:35.911Z,16.88
2022-10-14T09:39:40.287Z,17.05
2022-10-14T09:44:41.895Z,17.18
2022-10-14T09:49:46.946Z,17.32
2022-10-14T09:54:58.630Z,17.29
2022-10-14T10:00:03.931Z,17.41
2022-10-14T10:05:14.147Z,17.59
2022-10-14T10:10:22.638Z,17.76
2022-10-14T10:15:24.440Z,17.73
2022-10-14T10:20:34.128Z,17.77
2022-10-14T10:25:35.494Z,17.88
2022-10-14T10:30:48.434Z,18.07
2022-10-14T10:35:52.539Z,18.27
2022-10-14T10:41:21.779Z,18.37
2022-10-14T10:46:32.248Z,18.46
2022-10-14T10:52:04.198Z,18.40
2022-10-14T10:57:18.523Z,18.25
2022-10-14T11:02:38.770Z,18.10
2022-10-14T11:08:12.619Z,18.27
2022-10-14T11:13:29.488Z,18.23
2022-10-14T11:19:10.890Z,18.31
2022-10-14T11:24:33.774Z,18.35
2022-10-14T11:29:54.234Z,18.37
2022-10-14T11:35:17.065Z,18.36
2022-10-14T11:40:39.604Z,18.10
2022-10-14T11:45:51.212Z,17.95
2022-10-14T11:51:05.142Z,17.93
2022-10-14T11:56:30.963Z,17.97
2022-10-14T12:01:38.643Z,17.98
2022-10-14T12:06:57.195Z,17.90
2022-10-14T12:12:11.814Z,17.72
2022-10-14T12:17:23.523Z,17.63
2022-10-14T12:22:29.149Z,17.62
2022-10-14T12:27:31.297Z,17.60
2022-10-14T12:32:32.947Z,17.56
2022-10-14T12:37:38.027Z,17.43
2022-10-14T12:42:42.169Z,17.29
2022-10-14T12:47:43.991Z,17.20
2022-10-14T12:52:55.660Z,17.17
2022-10-14T12:58:06.165Z,17.10
2022-10-14T13:03:20.479Z,16.76
2022-10-14T13:08:25.573Z,16.78
2022-10-14T13:13:40.040Z,16.68
2022-10-14T13:18:44.209Z,16.71
2022-10-14T13:23:50.732Z,16.77
2022-10-14T13:29:04.479Z,16.64
2022-10-14T13:34:27.653Z,16.59
2022-10-14T13:39:32.855Z,16.54
2022-10-14T13:44:35.606Z,16.53
2022-10-14T13:49:40.374Z,16.62
2022-10-14T13:54:41.859Z,16.70
2022-10-14T14:00:09.061Z,16.76
2022-10-14T14:05:16.190Z,16.67
2022-10-14T14:10:20.723Z,16.71
2022-10-14T14:15:27.393Z,16.73
2022-10-14T14:20:29.608Z,16.60
2022-10-14T14:25:36.707Z,16.66
2022-10-14T14:30:39.171Z,16.62
2022-10-14T14:35:51.933Z,16.60
2022-10-14T14:41:06.842Z,16.50
2022-10-14T14:46:17.273Z,16.59
2022-10-14T14:51:19.152Z,16.53
2022-10-14T14:56:31.552Z,16.60
2022-10-14T15:01:33.197Z,16.61
2022-10-14T15:06:34.665Z,16.60
2022-10-14T15:11:49.362Z,16.60
2022-10-14T15:16:54.178Z,16.62
2022-10-14T15:22:22.860Z,16.61
2022-10-14T15:27:35.638Z,16.64
2022-10-14T15:32:37.167Z,16.69
2022-10-14T15:37:38.622Z,16.71
2022-10-14T15:42:40.270Z,16.61
2022-10-14T15:47:42.640Z,16.63
2022-10-14T15:52:45.341Z,16.67
2022-10-14T15:57:49.743Z,16.74
2022-10-14T16:02:58.397Z,16.65
2022-10-14T16:08:01.698Z,16.76
2022-10-14T16:13:03.110Z,16.72
2022-10-14T16:18:04.687Z,16.80
2022-10-14T16:23:06.792Z,16.83
2022-10-14T16:28:12.735Z,16.69
2022-10-14T16:33:19.236Z,16.73
2022-10-14T16:38:21.294Z,16.82
2022-10-14T16:43:22.731Z,16.89
2022-10-14T16:48:24.075Z,16.95
2022-10-14T16:53:41.062Z,17.00
2022-10-14T16:58:42.439Z,17.03
2022-10-14T17:03:44.663Z,16.88
2022-10-14T17:08:45.987Z,16.90
2022-10-14T17:13:51.586Z,16.99
2022-10-14T17:18:52.979Z,17.03
2022-10-14T17:23:54.294Z,17.12
2022-10-14T17:28:57.080Z,17.09
2022-10-14T17:33:59.204Z,17.05
2022-10-14T17:39:00.640Z,17.08
2022-10-14T17:44:02.705Z,17.05
2022-10-14T17:49:06.358Z,17.04
2022-10-14T17:54:10.935Z,17.01
2022-10-14T17:59:14.029Z,16.96
2022-10-14T18:04:15.690Z,17.09
2022-10-14T18:09:17.107Z,17.11
2022-10-14T18:14:18.505Z,17.13
2022-10-14T18:19:19.904Z,17.13
2022-10-14T18:24:21.369Z,17.10
2022-10-14T18:29:23.814Z,17.14
2022-10-14T18:34:27.184Z,17.18
2022-10-14T18:39:28.603Z,17.15
2022-10-14T18:44:29.966Z,17.16
2022-10-14T18:49:33.642Z,17.15
2022-10-14T18:54:38.105Z,17.11
2022-10-14T18:59:39.535Z,17.12
2022-10-14T19:04:40.868Z,17.11
2022-10-14T19:09:42.286Z,17.23
2022-10-14T19:14:44.344Z,17.25
2022-10-14T19:19:45.710Z,17.24
2022-10-14T19:24:47.053Z,17.22
2022-10-14T19:29:48.400Z,17.19
2022-10-14T19:34:49.714Z,17.21
2022-10-14T19:39:51.055Z,17.20
2022-10-14T19:44:52.959Z,17.22
2022-10-14T19:49:54.315Z,17.24
2022-10-14T19:54:55.692Z,17.19
2022-10-14T19:59:57.064Z,17.17
2022-10-14T20:04:58.398Z,17.17
2022-10-14T20:10:02.013Z,17.17
2022-10-14T20:15:06.700Z,17.16
2022-10-14T20:20:08.711Z,17.18
2022-10-14T20:25:10.255Z,17.11
2022-10-14T20:30:12.137Z,17.15
2022-10-14T20:35:15.151Z,17.07
2022-10-14T20:40:16.850Z,17.07
2022-10-14T20:45:18.575Z,17.10
2022-10-14T20:50:20.449Z,17.07
2022-10-14T20:55:21.813Z,17.00
2022-10-14T21:00:23.183Z,17.01
2022-10-14T21:05:25.192Z,16.98
2022-10-14T21:10:27.345Z,16.99
2022-10-14T21:15:28.717Z,16.98
2022-10-14T21:20:30.060Z,16.93
2022-10-14T21:25:31.454Z,16.83
2022-10-14T21:30:32.824Z,16.74
2022-10-14T21:35:34.169Z,16.62
2022-10-14T21:40:35.537Z,16.58
2022-10-14T21:45:36.866Z,16.56
2022-10-14T21:50:38.182Z,16.61
2022-10-14T21:55:39.645Z,16.65
2022-10-14T22:00:40.972Z,16.63
2022-10-14T22:05:42.327Z,16.66
2022-10-14T22:10:44.906Z,16.71
2022-10-14T22:15:46.265Z,16.75
2022-10-14T22:20:48.991Z,16.69
2022-10-14T22:25:50.347Z,16.71
2022-10-14T22:30:51.678Z,16.74
2022-10-14T22:35:53.043Z,16.73
2022-10-14T22:40:54.362Z,16.74
2022-10-14T22:46:03.300Z,16.81
2022-10-14T22:51:13.314Z,16.89
2022-10-14T22:56:17.273Z,16.90
2022-10-14T23:01:18.709Z,17.00
2022-10-14T23:06:20.488Z,17.01
2022-10-14T23:11:24.015Z,16.98
2022-10-14T23:16:27.447Z,16.98
2022-10-14T23:21:34.235Z,17.01
2022-10-14T23:26:36.093Z,16.99
2022-10-14T23:31:39.298Z,16.98
2022-10-14T23:36:41.395Z,16.97
2022-10-14T23:41:43.259Z,16.98
2022-10-14T23:46:44.686Z,16.94
2022-10-14T23:51:46.020Z,16.78
2022-10-14T23:56:47.396Z,16.76
